createdAt,value
2023-08-14T00:00:39.798Z,99554.14
2023-08-14T00:03:31.339Z,99555.54
2023-08-14T00:06:03.635Z,99554.13
2023-08-14T00:08:35.147Z,99549.32
2023-08-14T00:11:06.710Z,99549.89
2023-08-14T00:13:53.323Z,99549.52
2023-08-14T00:16:26.169Z,99553.27
2023-08-14T00:18:57.785Z,99549.52
2023-08-14T00:21:29.950Z,99553.57
2023-08-14T00:24:01.617Z,99550.69
2023-08-14T00:26:33.144Z,99551.00
2023-08-14T00:29:05.033Z,99544.60
2023-08-14T00:31:36.707Z,99543.23
2023-08-14T00:34:08.259Z,99539.32
2023-08-14T00:36:39.746Z,99539.20
2023-08-14T00:39:11.709Z,99539.42
2023-08-14T00:41:43.349Z,99538.66
2023-08-14T00:44:15.604Z,99538.26
2023-08-14T00:46:47.244Z,99540.81
2023-08-14T00:49:19.103Z,99542.75
2023-08-14T00:51:50.867Z,99536.58
2023-08-14T00:54:22.538Z,99531.52
2023-08-14T00:56:54.053Z,99533.98
2023-08-14T00:59:25.956Z,99538.29
2023-08-14T01:01:58.336Z,99535.67
2023-08-14T01:04:30.051Z,99538.16
2023-08-14T01:07:04.353Z,99536.36
2023-08-14T01:09:36.514Z,99536.81
2023-08-14T01:12:16.249Z,99539.92
2023-08-14T01:14:53.039Z,99539.77
2023-08-14T01:17:31.790Z,99538.73
2023-08-14T01:20:06.037Z,99537.49
2023-08-14T01:23:05.710Z,99540.89
2023-08-14T01:25:39.371Z,99547.20
2023-08-14T01:28:13.038Z,99543.91
2023-08-14T01:30:45.640Z,99543.10
2023-08-14T01:33:17.576Z,99544.96
2023-08-14T01:35:54.820Z,99550.02
2023-08-14T01:38:36.284Z,99547.57
2023-08-14T01:41:13.418Z,99537.84
2023-08-14T01:43:50.093Z,99539.27
2023-08-14T01:46:22.733Z,99541.64
2023-08-14T01:48:55.971Z,99540.46
2023-08-14T01:51:28.713Z,99534.20
2023-08-14T01:54:01.830Z,99532.36
2023-08-14T01:56:33.345Z,99529.44
2023-08-14T01:59:05.110Z,99519.73
2023-08-14T02:01:36.765Z,99511.35
2023-08-14T02:04:10.283Z,99513.02
2023-08-14T02:06:41.701Z,99512.23
2023-08-14T02:09:13.292Z,99512.80
2023-08-14T02:11:44.824Z,99522.32
2023-08-14T02:14:16.505Z,99516.14
2023-08-14T02:16:48.008Z,99512.02
2023-08-14T02:19:19.541Z,99503.83
2023-08-14T02:21:51.943Z,99497.01
2023-08-14T02:24:23.607Z,99495.11
2023-08-14T02:26:55.113Z,99490.71
2023-08-14T02:29:26.560Z,99492.98
2023-08-14T02:31:58.029Z,99490.95
2023-08-14T02:34:44.558Z,99492.35
2023-08-14T02:37:17.694Z,99493.58
2023-08-14T02:39:49.830Z,99496.21
2023-08-14T02:42:22.675Z,99491.98
2023-08-14T02:44:55.079Z,99488.66
2023-08-14T02:47:26.502Z,99484.61
2023-08-14T02:49:58.120Z,99486.23
2023-08-14T02:52:29.614Z,99490.25
2023-08-14T02:55:01.276Z,99487.86
2023-08-14T02:57:32.713Z,99491.41
2023-08-14T03:00:06.422Z,99485.92
2023-08-14T03:02:38.123Z,99484.14
2023-08-14T03:05:10.542Z,99491.48
2023-08-14T03:07:42.069Z,99494.73
2023-08-14T03:10:13.701Z,99488.54
2023-08-14T03:12:45.522Z,99477.58
2023-08-14T03:15:17.190Z,99477.92
2023-08-14T03:17:48.870Z,99470.94
2023-08-14T03:20:20.628Z,99469.77
2023-08-14T03:22:52.388Z,99471.63
2023-08-14T03:25:24.293Z,99472.20
2023-08-14T03:27:55.907Z,99473.55
2023-08-14T03:30:27.508Z,99467.70
2023-08-14T03:32:59.196Z,99470.24
2023-08-14T03:35:30.794Z,99465.41
2023-08-14T03:38:02.340Z,99471.38
2023-08-14T03:40:35.588Z,99474.83
2023-08-14T03:43:07.229Z,99473.23
2023-08-14T03:45:38.756Z,99474.64
2023-08-14T03:48:10.301Z,99471.83
2023-08-14T03:50:41.858Z,99477.14
2023-08-14T03:53:13.534Z,99477.66
2023-08-14T03:55:46.091Z,99473.34
2023-08-14T03:58:19.294Z,99463.84
2023-08-14T04:00:50.867Z,99463.23
2023-08-14T04:03:23.208Z,99460.87
2023-08-14T04:05:58.447Z,99459.80
2023-08-14T04:08:30.209Z,99455.71
2023-08-14T04:11:01.802Z,99453.94
2023-08-14T04:13:33.264Z,99460.08
2023-08-14T04:16:05.247Z,99458.13
2023-08-14T04:18:38.162Z,99451.63
2023-08-14T04:21:09.730Z,99448.77
2023-08-14T04:23:41.308Z,99452.31
2023-08-14T04:26:12.904Z,99455.23
2023-08-14T04:28:44.436Z,99455.62
2023-08-14T04:31:15.881Z,99454.42
2023-08-14T04:33:47.357Z,99453.75
2023-08-14T04:36:18.962Z,99454.94
2023-08-14T04:38:50.594Z,99454.33
2023-08-14T04:41:22.185Z,99455.13
2023-08-14T04:43:53.948Z,99454.85
2023-08-14T04:46:44.851Z,99459.21
2023-08-14T04:49:25.415Z,99466.79
2023-08-14T04:51:57.237Z,99461.86
2023-08-14T04:54:29.100Z,99461.45
2023-08-14T04:57:00.563Z,99452.23
2023-08-14T04:59:32.375Z,99444.77
2023-08-14T05:02:05.237Z,99444.77
2023-08-14T05:04:36.821Z,99454.53
2023-08-14T05:07:08.544Z,99464.94
2023-08-14T05:09:40.171Z,99465.77
2023-08-14T05:12:12.373Z,99462.75
2023-08-14T05:14:43.985Z,99467.25
2023-08-14T05:17:15.624Z,99467.08
2023-08-14T05:19:47.387Z,99470.17
2023-08-14T05:22:21.039Z,99476.73
2023-08-14T05:24:52.772Z,99469.97
2023-08-14T05:27:25.410Z,99468.17
2023-08-14T05:30:05.751Z,99462.25
2023-08-14T05:32:37.751Z,99458.92
2023-08-14T05:35:10.285Z,99462.52
2023-08-14T05:37:42.913Z,99460.00
2023-08-14T05:40:15.908Z,99459.77
2023-08-14T05:42:47.629Z,99454.56
2023-08-14T05:45:19.342Z,99456.67
2023-08-14T05:47:51.020Z,99456.45
2023-08-14T05:50:23.187Z,99460.63
2023-08-14T05:52:55.824Z,99462.48
2023-08-14T05:55:27.338Z,99460.52
2023-08-14T05:57:58.978Z,99464.07
2023-08-14T06:00:31.232Z,99466.19
2023-08-14T06:03:03.010Z,99469.52
2023-08-14T06:05:35.200Z,99472.04
2023-08-14T06:08:08.273Z,99466.08
2023-08-14T06:10:40.724Z,99462.20
2023-08-14T06:13:12.707Z,99463.52
2023-08-14T06:15:44.196Z,99463.16
2023-08-14T06:18:15.792Z,99466.39
2023-08-14T06:20:47.293Z,99467.90
2023-08-14T06:23:20.366Z,99464.46
2023-08-14T06:25:52.302Z,99461.39
2023-08-14T06:28:24.230Z,99470.14
2023-08-14T06:30:55.898Z,99474.17
2023-08-14T06:33:27.454Z,99470.61
2023-08-14T06:35:59.077Z,99472.92
2023-08-14T06:38:31.064Z,99468.41
2023-08-14T06:41:02.841Z,99461.77
2023-08-14T06:43:35.590Z,99457.48
2023-08-14T06:46:07.208Z,99440.52
2023-08-14T06:48:38.738Z,99444.42
2023-08-14T06:51:10.302Z,99445.71
2023-08-14T06:53:42.047Z,99433.33
2023-08-14T06:56:13.738Z,99432.61
2023-08-14T06:58:45.640Z,99431.73
2023-08-14T07:01:17.792Z,99431.19
2023-08-14T07:03:50.069Z,99436.98
2023-08-14T07:06:22.189Z,99438.13
2023-08-14T07:08:53.744Z,99433.32
2023-08-14T07:11:25.564Z,99422.55
2023-08-14T07:13:57.747Z,99420.69
2023-08-14T07:16:29.217Z,99411.73
2023-08-14T07:19:01.326Z,99413.38
2023-08-14T07:21:32.917Z,99415.83
2023-08-14T07:24:05.133Z,99427.31
2023-08-14T07:26:36.743Z,99430.04
2023-08-14T07:29:08.548Z,99434.64
2023-08-14T07:31:40.087Z,99422.62
2023-08-14T07:34:11.981Z,99416.22
2023-08-14T07:36:43.620Z,99404.86
2023-08-14T07:39:15.299Z,99404.02
2023-08-14T07:41:46.967Z,99406.20
2023-08-14T07:44:18.610Z,99403.86
2023-08-14T07:46:50.125Z,99402.64
2023-08-14T07:49:21.996Z,99400.29
2023-08-14T07:51:53.595Z,99400.13
2023-08-14T07:54:25.501Z,99397.02
2023-08-14T07:56:57.141Z,99395.58
2023-08-14T07:59:28.738Z,99395.37
2023-08-14T08:02:00.488Z,99394.10
2023-08-14T08:04:39.534Z,99393.09
2023-08-14T08:07:11.776Z,99391.61
2023-08-14T08:09:43.583Z,99391.70
2023-08-14T08:12:16.581Z,99383.71
2023-08-14T08:14:48.663Z,99378.37
2023-08-14T08:17:20.211Z,99375.90
2023-08-14T08:19:52.836Z,99370.64
2023-08-14T08:22:24.573Z,99375.20
2023-08-14T08:24:56.506Z,99373.80
2023-08-14T08:27:28.336Z,99377.23
2023-08-14T08:30:00.001Z,99383.26
2023-08-14T08:32:31.528Z,99386.19
2023-08-14T08:35:03.232Z,99394.84
2023-08-14T08:37:35.065Z,99402.92
2023-08-14T08:40:09.649Z,99395.33
2023-08-14T08:42:42.081Z,99392.20
2023-08-14T08:45:19.145Z,99391.07
2023-08-14T08:47:53.424Z,99399.86
2023-08-14T08:50:26.739Z,99404.43
2023-08-14T08:52:58.781Z,99396.84
2023-08-14T08:55:30.692Z,99389.31
2023-08-14T08:58:04.789Z,99393.42
2023-08-14T09:00:36.616Z,99393.17
2023-08-14T09:03:08.992Z,99398.49
2023-08-14T09:05:41.645Z,99401.05
2023-08-14T09:08:13.466Z,99398.25
2023-08-14T09:10:45.049Z,99395.70
2023-08-14T09:13:17.533Z,99395.00
2023-08-14T09:15:56.813Z,99391.30
2023-08-14T09:18:28.654Z,99387.06
2023-08-14T09:21:00.510Z,99392.45
2023-08-14T09:23:35.903Z,99402.51
2023-08-14T09:26:07.859Z,99397.95
2023-08-14T09:28:40.545Z,99387.48
2023-08-14T09:31:14.846Z,99382.39
2023-08-14T09:33:47.567Z,99379.71
2023-08-14T09:36:19.291Z,99378.10
2023-08-14T09:38:53.979Z,99372.96
2023-08-14T09:41:28.303Z,99374.83
2023-08-14T09:44:03.500Z,99377.02
2023-08-14T09:46:35.422Z,99378.07
2023-08-14T09:49:09.559Z,99379.44
2023-08-14T09:51:43.543Z,99379.71
2023-08-14T09:54:15.204Z,99370.68
2023-08-14T09:56:48.449Z,99363.17
2023-08-14T09:59:20.233Z,99366.23
2023-08-14T10:01:51.919Z,99363.89
2023-08-14T10:04:24.500Z,99364.27
2023-08-14T10:06:57.282Z,99362.66
2023-08-14T10:09:33.001Z,99363.25
2023-08-14T10:12:08.926Z,99360.86
2023-08-14T10:14:43.531Z,99356.05
2023-08-14T10:17:23.498Z,99350.58
2023-08-14T10:19:54.525Z,99349.38
2023-08-14T10:22:26.882Z,99350.48
2023-08-14T10:24:58.498Z,99353.95
2023-08-14T10:27:31.902Z,99352.55
2023-08-14T10:30:04.939Z,99356.67
2023-08-14T10:32:38.260Z,99358.77
2023-08-14T10:35:12.943Z,99362.09
2023-08-14T10:37:56.312Z,99359.56
2023-08-14T10:40:36.937Z,99360.95
2023-08-14T10:43:09.169Z,99364.67
2023-08-14T10:45:41.007Z,99363.52
2023-08-14T10:48:14.135Z,99365.11
2023-08-14T10:50:49.510Z,99371.39
2023-08-14T10:53:21.310Z,99376.39
2023-08-14T10:55:54.126Z,99381.79
2023-08-14T10:58:48.539Z,99383.50
2023-08-14T11:01:20.897Z,99375.52
2023-08-14T11:04:06.337Z,99374.48
2023-08-14T11:07:09.898Z,99380.15
2023-08-14T11:09:42.897Z,99376.35
2023-08-14T11:12:14.637Z,99376.27
2023-08-14T11:14:46.569Z,99371.73
2023-08-14T11:17:18.616Z,99369.11
2023-08-14T11:19:51.489Z,99374.30
2023-08-14T11:22:24.865Z,99385.87
2023-08-14T11:24:56.827Z,99394.65
2023-08-14T11:27:28.435Z,99390.39
2023-08-14T11:30:02.465Z,99391.59
2023-08-14T11:32:35.896Z,99390.70
2023-08-14T11:35:09.043Z,99390.20
2023-08-14T11:37:40.930Z,99378.22
2023-08-14T11:40:14.540Z,99375.70
2023-08-14T11:42:46.585Z,99373.97
2023-08-14T11:45:18.167Z,99375.35
2023-08-14T11:47:51.463Z,99378.83
2023-08-14T11:50:23.599Z,99388.79
2023-08-14T11:52:56.372Z,99397.40
2023-08-14T11:55:28.903Z,99395.39
2023-08-14T11:58:04.029Z,99394.55
2023-08-14T12:00:35.830Z,99392.50
2023-08-14T12:03:09.808Z,99392.18
2023-08-14T12:05:42.289Z,99389.63
2023-08-14T12:08:15.426Z,99390.58
2023-08-14T12:10:48.985Z,99391.73
2023-08-14T12:13:24.555Z,99393.73
2023-08-14T12:15:56.291Z,99391.94
2023-08-14T12:18:27.992Z,99393.89
2023-08-14T12:20:59.910Z,99385.52
2023-08-14T12:23:31.915Z,99389.01
2023-08-14T12:26:08.924Z,99384.51
2023-08-14T12:28:40.746Z,99388.25
2023-08-14T12:31:13.347Z,99384.45
2023-08-14T12:33:46.975Z,99386.49
2023-08-14T12:36:20.714Z,99384.17
2023-08-14T12:38:52.406Z,99381.86
2023-08-14T12:41:24.238Z,99374.77
2023-08-14T12:43:55.908Z,99362.95
2023-08-14T12:46:27.677Z,99351.23
2023-08-14T12:48:59.234Z,99345.67
2023-08-14T12:51:31.545Z,99339.34
2023-08-14T12:54:03.120Z,99343.77
2023-08-14T12:56:38.115Z,99343.30
2023-08-14T12:59:10.164Z,99336.55
2023-08-14T13:01:47.502Z,99334.34
2023-08-14T13:04:19.605Z,99324.64
2023-08-14T13:06:51.684Z,99319.88
2023-08-14T13:09:23.245Z,99316.31
2023-08-14T13:11:55.037Z,99316.98
2023-08-14T13:14:26.573Z,99317.77
2023-08-14T13:16:58.271Z,99321.13
2023-08-14T13:19:29.931Z,99330.22
2023-08-14T13:22:01.593Z,99333.12
2023-08-14T13:24:33.111Z,99330.30
2023-08-14T13:27:09.525Z,99325.13
2023-08-14T13:29:42.005Z,99315.89
2023-08-14T13:32:13.790Z,99310.96
2023-08-14T13:34:45.385Z,99307.51
2023-08-14T13:37:17.183Z,99296.52
2023-08-14T13:39:48.809Z,99294.41
2023-08-14T13:42:20.583Z,99295.30
2023-08-14T13:44:56.173Z,99314.14
2023-08-14T13:47:33.490Z,99315.77
2023-08-14T13:50:12.079Z,99308.48
2023-08-14T13:52:46.886Z,99305.31
2023-08-14T13:55:19.507Z,99302.56
2023-08-14T13:57:51.231Z,99298.91
2023-08-14T14:00:28.019Z,99301.06
2023-08-14T14:03:01.692Z,99293.95
2023-08-14T14:05:33.516Z,99292.73
2023-08-14T14:08:05.647Z,99288.33
2023-08-14T14:10:37.476Z,99281.25
2023-08-14T14:13:09.357Z,99271.83
2023-08-14T14:15:41.749Z,99266.83
2023-08-14T14:18:13.555Z,99266.10
2023-08-14T14:20:46.701Z,99263.13
2023-08-14T14:23:18.364Z,99262.88
2023-08-14T14:25:49.908Z,99256.15
2023-08-14T14:28:21.639Z,99253.16
2023-08-14T14:30:53.193Z,99250.49
2023-08-14T14:33:24.775Z,99243.76
2023-08-14T14:35:56.334Z,99230.91
2023-08-14T14:38:28.302Z,99224.61
2023-08-14T14:41:02.292Z,99225.96
2023-08-14T14:43:34.219Z,99223.80
2023-08-14T14:46:08.794Z,99215.66
2023-08-14T14:48:41.174Z,99217.56
2023-08-14T14:51:12.735Z,99220.60
2023-08-14T14:53:44.529Z,99215.47
2023-08-14T14:56:16.095Z,99218.44
2023-08-14T14:58:48.419Z,99232.30
2023-08-14T15:01:20.093Z,99231.05
2023-08-14T15:03:52.059Z,99236.27
2023-08-14T15:06:23.618Z,99236.94
2023-08-14T15:08:55.163Z,99237.98
2023-08-14T15:11:26.766Z,99243.02
2023-08-14T15:13:58.482Z,99237.73
2023-08-14T15:16:33.044Z,99236.27
2023-08-14T15:19:05.282Z,99237.33
2023-08-14T15:21:36.872Z,99235.12
2023-08-14T15:24:09.714Z,99235.92
2023-08-14T15:26:41.382Z,99236.77
2023-08-14T15:29:13.509Z,99237.84
2023-08-14T15:31:45.285Z,99237.05
2023-08-14T15:34:16.928Z,99244.84
2023-08-14T15:36:48.562Z,99240.05
2023-08-14T15:39:20.178Z,99240.11
2023-08-14T15:41:51.741Z,99238.77
2023-08-14T15:44:23.485Z,99237.42
2023-08-14T15:46:55.346Z,99233.65
2023-08-14T15:49:26.933Z,99243.86
2023-08-14T15:51:58.462Z,99243.53
2023-08-14T15:54:43.044Z,99240.23
2023-08-14T15:57:21.833Z,99244.45
2023-08-14T15:59:53.951Z,99248.52
2023-08-14T16:02:25.546Z,99251.41
2023-08-14T16:04:58.223Z,99252.50
2023-08-14T16:07:30.248Z,99252.42
2023-08-14T16:10:01.815Z,99251.74
2023-08-14T16:12:33.530Z,99247.10
2023-08-14T16:15:07.464Z,99246.50
2023-08-14T16:17:43.084Z,99247.31
2023-08-14T16:20:15.421Z,99247.45
2023-08-14T16:22:46.953Z,99246.42
2023-08-14T16:25:18.606Z,99251.92
2023-08-14T16:27:50.157Z,99249.76
2023-08-14T16:30:21.682Z,99249.58
2023-08-14T16:32:53.412Z,99246.11
2023-08-14T16:35:24.949Z,99244.93
2023-08-14T16:37:56.446Z,99245.02
2023-08-14T16:40:28.674Z,99246.26
2023-08-14T16:43:01.277Z,99246.14
2023-08-14T16:45:33.020Z,99243.52
2023-08-14T16:48:05.094Z,99246.66
2023-08-14T16:50:40.132Z,99249.28
2023-08-14T16:53:12.456Z,99248.59
2023-08-14T16:55:45.034Z,99246.91
2023-08-14T16:58:16.934Z,99253.30
2023-08-14T17:00:49.336Z,99255.55
2023-08-14T17:03:22.615Z,99253.73
2023-08-14T17:06:02.445Z,99259.08
2023-08-14T17:08:36.448Z,99261.52
2023-08-14T17:11:09.308Z,99261.43
2023-08-14T17:13:40.887Z,99262.08
2023-08-14T17:16:13.648Z,99259.55
2023-08-14T17:18:45.637Z,99263.91
2023-08-14T17:21:17.231Z,99260.56
2023-08-14T17:23:48.816Z,99258.59
2023-08-14T17:26:20.695Z,99254.30
2023-08-14T17:28:52.203Z,99255.60
2023-08-14T17:31:23.916Z,99252.73
2023-08-14T17:33:55.610Z,99251.71
2023-08-14T17:36:27.558Z,99251.33
2023-08-14T17:39:01.418Z,99245.47
2023-08-14T17:44:06.285Z,99234.54
2023-08-14T17:46:37.985Z,99232.19
2023-08-14T17:49:09.565Z,99236.19
2023-08-14T17:51:41.066Z,99239.63
2023-08-14T17:54:12.808Z,99241.96
2023-08-14T17:56:44.671Z,99244.01
2023-08-14T17:59:16.120Z,99241.16
2023-08-14T18:01:47.730Z,99239.98
2023-08-14T18:04:19.290Z,99240.52
2023-08-14T18:06:50.895Z,99242.10
2023-08-14T18:09:22.358Z,99242.35
2023-08-14T18:11:54.101Z,99244.66
2023-08-14T18:14:25.653Z,99243.38
2023-08-14T18:16:57.205Z,99240.05
2023-08-14T18:19:29.930Z,99244.05
2023-08-14T18:22:01.739Z,99237.25
2023-08-14T18:24:33.499Z,99242.02
2023-08-14T18:27:05.827Z,99244.63
2023-08-14T18:29:37.416Z,99243.45
2023-08-14T18:32:09.541Z,99242.92
2023-08-14T18:34:43.794Z,99240.95
2023-08-14T18:37:15.744Z,99244.58
2023-08-14T18:39:47.356Z,99245.25
2023-08-14T18:42:19.266Z,99243.58
2023-08-14T18:44:52.718Z,99245.40
2023-08-14T18:47:34.189Z,99246.36
2023-08-14T18:50:11.687Z,99242.76
2023-08-14T18:52:47.345Z,99247.03
2023-08-14T18:55:20.086Z,99250.36
2023-08-14T18:57:53.731Z,99255.68
2023-08-14T19:00:26.463Z,99259.30
2023-08-14T19:03:00.352Z,99258.11
2023-08-14T19:05:33.117Z,99260.91
2023-08-14T19:08:06.910Z,99262.46
2023-08-14T19:10:38.468Z,99268.27
2023-08-14T19:13:10.025Z,99274.13
2023-08-14T19:15:45.324Z,99274.69
2023-08-14T19:18:19.698Z,99277.93
2023-08-14T19:20:52.406Z,99279.34
2023-08-14T19:23:24.014Z,99277.11
2023-08-14T19:26:00.206Z,99283.39
2023-08-14T19:28:45.437Z,99285.86
2023-08-14T19:31:18.601Z,99291.29
2023-08-14T19:33:50.631Z,99292.47
2023-08-14T19:36:22.237Z,99291.71
2023-08-14T19:38:53.928Z,99288.45
2023-08-14T19:41:25.449Z,99283.55
2023-08-14T19:43:58.124Z,99278.81
2023-08-14T19:46:30.303Z,99276.41
2023-08-14T19:49:02.416Z,99281.15
2023-08-14T19:51:33.905Z,99279.16
2023-08-14T19:54:06.134Z,99281.80
2023-08-14T19:56:37.670Z,99285.85
2023-08-14T19:59:09.754Z,99283.48
2023-08-14T20:01:41.355Z,99280.31
2023-08-14T20:04:12.987Z,99286.06
2023-08-14T20:06:45.086Z,99288.68
2023-08-14T20:09:17.718Z,99292.86
2023-08-14T20:12:03.800Z,99293.89
2023-08-14T20:14:42.002Z,99295.71
2023-08-14T20:17:28.518Z,99297.97
2023-08-14T20:20:02.916Z,99298.53
2023-08-14T20:22:34.519Z,99295.08
2023-08-14T20:25:06.994Z,99293.99
2023-08-14T20:27:38.636Z,99294.50
2023-08-14T20:30:12.187Z,99294.83
2023-08-14T20:32:43.935Z,99298.60
2023-08-14T20:35:16.091Z,99303.08
2023-08-14T20:37:47.748Z,99304.55
2023-08-14T20:40:19.676Z,99306.09
2023-08-14T20:42:51.142Z,99309.58
2023-08-14T20:45:23.714Z,99307.93
2023-08-14T20:47:55.573Z,99314.89
2023-08-14T20:50:33.829Z,99317.91
2023-08-14T20:53:06.006Z,99327.20
2023-08-14T20:55:37.774Z,99331.69
2023-08-14T20:58:09.834Z,99334.60
2023-08-14T21:00:44.708Z,99336.96
2023-08-14T21:03:17.364Z,99338.83
2023-08-14T21:05:50.285Z,99342.16
2023-08-14T21:08:22.529Z,99339.66
2023-08-14T21:10:54.562Z,99345.97
2023-08-14T21:13:26.885Z,99344.41
2023-08-14T21:16:00.676Z,99344.86
2023-08-14T21:18:32.222Z,99346.82
2023-08-14T21:21:03.760Z,99344.68
2023-08-14T21:23:35.226Z,99343.70
2023-08-14T21:26:06.668Z,99342.20
2023-08-14T21:28:38.151Z,99345.98
2023-08-14T21:31:09.806Z,99348.41
2023-08-14T21:33:41.369Z,99350.60
2023-08-14T21:36:13.010Z,99348.70
2023-08-14T21:38:44.754Z,99344.98
2023-08-14T21:41:16.393Z,99350.87
2023-08-14T21:43:47.913Z,99356.11
2023-08-14T21:46:19.538Z,99356.83
2023-08-14T21:48:51.301Z,99354.13
2023-08-14T21:51:23.753Z,99358.33
2023-08-14T21:53:55.613Z,99354.08
2023-08-14T21:56:27.103Z,99351.91
2023-08-14T21:58:58.624Z,99351.48
2023-08-14T22:01:30.314Z,99358.82
2023-08-14T22:04:01.832Z,99359.38
2023-08-14T22:06:33.440Z,99360.54
2023-08-14T22:09:06.440Z,99363.65
2023-08-14T22:11:38.224Z,99367.39
2023-08-14T22:14:09.773Z,99367.54
2023-08-14T22:16:41.392Z,99373.83
2023-08-14T22:19:13.322Z,99379.40
2023-08-14T22:21:44.876Z,99382.91
2023-08-14T22:24:28.547Z,99382.15
2023-08-14T22:27:08.546Z,99383.61
2023-08-14T22:29:40.074Z,99379.89
2023-08-14T22:32:11.682Z,99377.92
2023-08-14T22:34:43.153Z,99380.31
2023-08-14T22:37:14.661Z,99385.11
2023-08-14T22:39:46.281Z,99387.02
2023-08-14T22:42:17.967Z,99384.38
2023-08-14T22:44:50.407Z,99387.65
2023-08-14T22:47:22.280Z,99385.63
2023-08-14T22:49:54.205Z,99382.34
2023-08-14T22:52:25.863Z,99381.55
2023-08-14T22:54:57.295Z,99378.54
2023-08-14T22:57:28.772Z,99377.92
2023-08-14T23:00:00.267Z,99378.54
2023-08-14T23:02:32.094Z,99382.73
2023-08-14T23:05:03.826Z,99384.64
2023-08-14T23:07:35.501Z,99375.38
2023-08-14T23:10:08.731Z,99379.00
2023-08-14T23:12:40.375Z,99381.17
2023-08-14T23:15:13.724Z,99386.73
2023-08-14T23:17:45.275Z,99387.00
2023-08-14T23:20:16.844Z,99387.52
2023-08-14T23:22:48.486Z,99396.33
2023-08-14T23:25:20.158Z,99409.67
2023-08-14T23:27:51.716Z,99406.67
2023-08-14T23:30:23.241Z,99403.19
2023-08-14T23:32:55.023Z,99395.38
2023-08-14T23:35:26.713Z,99391.73
2023-08-14T23:37:58.388Z,99392.02
2023-08-14T23:40:30.059Z,99389.70
2023-08-14T23:43:01.832Z,99385.56
2023-08-14T23:45:33.279Z,99378.95
2023-08-14T23:48:05.476Z,99368.39
2023-08-14T23:50:37.335Z,99368.60
2023-08-14T23:53:08.907Z,99362.71
2023-08-14T23:55:45.121Z,99357.05
2023-08-14T23:58:16.791Z,99365.58
